Главная страница
METAR-TAF:

METAR-TAF

Аэропорты :

Вестерланд, Германия

широта: 54-55N, долгота: 008-21E, высота над уровнем моря: 16 м

Текущие метеонаблюдения

Эта сводка был подготовлена 18 минут назад, в 14:20 UTC
Ветер 12 Узел от северный
Температура 26°C
Влажность 61%
Давление 1019 hPa
Видимость 10 км и более
Нет облачности ниже 1500 м, и нет кучево-дождевой облачности

METAR: EDXW 091420Z 35012KT CAVOK 26/18 Q1019

Время: 16:38 (14:38 UTC)

Прогноз

Эта сводка был подготовлена 38 минут назад, в 14:00 UTC
Прогноз действительный с 09-го 15 UTC до 09-го 21 UTC
Ветер 10 Узел от северный
Видимость 10 км и более
Нет облачности ниже 1500 м, и нет кучево-дождевой облачности

TAF: EDXW 091400Z 0915/0921 36010KT CAVOK

Метеонаблюдения и прогнозы для более 4000 аэропортов (сводки METAR и TAF).

Имеющиеся станции представлены на карте желтыми и красными точками.

Чтобы увидеть название станции, наведите на нее мышь.

Затем щелкните, чтобы увидеть метеонаблюдения и метеопрогнозы.

Управление картой: чтобы увеличить масштаб, щелкните зеленые кнопки с черным крестиком; чтобы уменьшить масштаб, щелкните зеленую кнопку с тире; для просмотра соседних карт щелкайте зеленые стрелки.


METAR-TAF: